createdAt,value
2018-03-03T00:00:39.719Z,11.93
2018-03-03T00:03:08.844Z,11.93
2018-03-03T00:05:38.775Z,19.97
2018-03-03T00:08:07.600Z,82.77
2018-03-03T00:10:36.746Z,71.17
2018-03-03T00:13:06.371Z,94.80
2018-03-03T00:15:35.474Z,38.30
2018-03-03T00:18:04.391Z,57.43
2018-03-03T00:20:33.292Z,6.27
2018-03-03T00:23:02.905Z,7.53
2018-03-03T00:25:32.082Z,5.03
2018-03-03T00:28:01.088Z,4.60
2018-03-03T00:30:30.426Z,3.67
2018-03-03T00:32:59.330Z,3.47
2018-03-03T00:35:28.255Z,4.17
2018-03-03T00:37:57.230Z,4.33
2018-03-03T00:40:26.561Z,4.37
2018-03-03T00:42:55.433Z,3.60
2018-03-03T00:45:24.241Z,3.83
2018-03-03T00:47:53.125Z,4.20
2018-03-03T00:50:21.972Z,4.03
2018-03-03T00:52:51.586Z,7.40
2018-03-03T00:55:21.410Z,7.87
2018-03-03T00:57:51.036Z,19.60
2018-03-03T01:00:19.910Z,8.27
2018-03-03T01:02:48.856Z,19.17
2018-03-03T01:05:17.981Z,4.57
2018-03-03T01:07:46.923Z,7.20
2018-03-03T01:10:16.622Z,9.70
2018-03-03T01:12:45.497Z,11.20
2018-03-03T01:15:14.396Z,12.53
2018-03-03T01:17:43.276Z,16.03
2018-03-03T01:20:12.143Z,19.57
2018-03-03T01:22:41.793Z,5.77
2018-03-03T01:25:10.588Z,5.27
2018-03-03T01:27:39.455Z,5.33
2018-03-03T01:30:08.474Z,5.27
2018-03-03T01:32:38.080Z,4.83
2018-03-03T01:35:06.907Z,4.40
2018-03-03T01:37:35.758Z,4.33
2018-03-03T01:40:04.877Z,5.07
2018-03-03T01:42:34.630Z,6.77
2018-03-03T01:45:03.529Z,12.70
2018-03-03T01:47:32.409Z,12.33
2018-03-03T01:50:01.299Z,45.47
2018-03-03T01:52:30.189Z,9.77
2018-03-03T01:55:00.082Z,12.53
2018-03-03T01:57:29.087Z,5.10
2018-03-03T01:59:57.920Z,5.17
2018-03-03T02:02:27.283Z,5.53
2018-03-03T02:04:56.100Z,5.40
2018-03-03T02:07:24.957Z,5.37
2018-03-03T02:09:54.040Z,5.43
2018-03-03T02:12:22.993Z,4.80
2018-03-03T02:14:51.848Z,5.20
2018-03-03T02:17:21.142Z,6.70
2018-03-03T02:19:50.033Z,5.77
2018-03-03T02:22:19.328Z,7.17
2018-03-03T02:24:48.149Z,5.70
2018-03-03T02:27:17.143Z,5.90
2018-03-03T02:29:45.961Z,5.93
2018-03-03T02:32:15.310Z,6.30
2018-03-03T02:34:44.129Z,6.67
2018-03-03T02:37:13.189Z,7.50
2018-03-03T02:39:42.815Z,6.53
2018-03-03T02:42:12.100Z,6.37
2018-03-03T02:44:40.947Z,6.53
2018-03-03T02:47:10.551Z,7.97
2018-03-03T02:49:40.180Z,5.53
2018-03-03T02:52:09.033Z,6.27
2018-03-03T02:54:37.985Z,6.10
2018-03-03T02:57:07.067Z,5.40
2018-03-03T02:59:36.064Z,5.83
2018-03-03T03:02:04.902Z,7.70
2018-03-03T03:04:34.019Z,6.90
2018-03-03T03:07:02.852Z,4.97
2018-03-03T03:09:31.937Z,5.30
2018-03-03T03:12:00.913Z,6.90
2018-03-03T03:14:30.489Z,7.07
2018-03-03T03:16:59.322Z,5.90
2018-03-03T03:19:29.109Z,6.60
2018-03-03T03:21:58.721Z,5.20
2018-03-03T03:24:27.954Z,5.70
2018-03-03T03:26:57.043Z,6.60
2018-03-03T03:29:26.661Z,6.50
2018-03-03T03:31:55.474Z,5.23
2018-03-03T03:34:24.566Z,7.73
2018-03-03T03:36:53.320Z,6.93
2018-03-03T03:39:23.390Z,6.20
2018-03-03T03:41:52.180Z,5.77
2018-03-03T03:44:21.740Z,7.53
2018-03-03T03:46:51.268Z,6.37
2018-03-03T03:49:20.239Z,6.23
2018-03-03T03:51:49.849Z,5.47
2018-03-03T03:54:19.400Z,7.17
2018-03-03T03:56:49.198Z,6.13
2018-03-03T03:59:18.040Z,6.10
2018-03-03T04:01:46.951Z,6.20
2018-03-03T04:04:16.021Z,16.73
2018-03-03T04:06:44.899Z,7.33
2018-03-03T04:09:13.688Z,7.13
2018-03-03T04:11:42.707Z,6.60
2018-03-03T04:14:11.801Z,6.37
2018-03-03T04:16:40.863Z,5.73
2018-03-03T04:19:10.866Z,5.90
2018-03-03T04:21:39.786Z,6.70
2018-03-03T04:24:09.464Z,7.17
2018-03-03T04:26:39.288Z,7.47
2018-03-03T04:29:08.443Z,7.70
2018-03-03T04:31:37.697Z,6.87
2018-03-03T04:34:07.333Z,7.50
2018-03-03T04:36:36.225Z,7.63
2018-03-03T04:39:06.233Z,6.70
2018-03-03T04:41:36.159Z,7.70
2018-03-03T04:44:05.778Z,5.73
2018-03-03T04:46:34.832Z,6.87
2018-03-03T04:49:03.791Z,8.07
2018-03-03T04:51:33.637Z,6.50
2018-03-03T04:54:03.436Z,6.80
2018-03-03T04:56:32.398Z,7.77
2018-03-03T04:59:22.418Z,7.00
2018-03-03T05:02:03.989Z,5.97
2018-03-03T05:04:39.327Z,6.83
2018-03-03T05:07:10.013Z,6.60
2018-03-03T05:09:39.817Z,5.77
2018-03-03T05:12:09.513Z,5.90
2018-03-03T05:14:54.716Z,5.97
2018-03-03T05:17:42.116Z,6.00
2018-03-03T05:20:16.597Z,5.67
2018-03-03T05:22:45.552Z,6.33
2018-03-03T05:25:20.243Z,6.57
2018-03-03T05:27:55.113Z,8.13
2018-03-03T05:30:29.458Z,5.60
2018-03-03T05:33:03.924Z,7.63
2018-03-03T05:35:49.308Z,7.60
2018-03-03T05:38:35.188Z,7.97
2018-03-03T05:41:09.818Z,7.37
2018-03-03T05:43:44.304Z,5.80
2018-03-03T05:46:28.758Z,7.43
2018-03-03T05:49:03.276Z,6.40
2018-03-03T05:51:49.804Z,6.70
2018-03-03T05:54:24.337Z,6.93
2018-03-03T05:57:09.901Z,6.97
2018-03-03T05:59:59.398Z,7.00
2018-03-03T06:02:48.165Z,8.03
2018-03-03T06:05:23.244Z,8.90
2018-03-03T06:07:57.835Z,9.30
2018-03-03T06:10:44.031Z,17.23
2018-03-03T06:13:12.904Z,28.57
2018-03-03T06:15:43.163Z,9.10
2018-03-03T06:18:13.019Z,12.60
2018-03-03T06:20:42.671Z,8.60
2018-03-03T06:23:12.675Z,5.97
2018-03-03T06:25:42.573Z,7.50
2018-03-03T06:28:11.494Z,7.30
2018-03-03T06:30:41.238Z,6.50
2018-03-03T06:33:10.097Z,6.20
2018-03-03T06:35:38.968Z,8.73
2018-03-03T06:38:07.848Z,6.47
2018-03-03T06:40:37.056Z,8.00
2018-03-03T06:43:06.672Z,7.57
2018-03-03T06:45:35.539Z,8.13
2018-03-03T06:48:04.438Z,7.20
2018-03-03T06:50:33.367Z,8.20
2018-03-03T06:53:02.272Z,6.90
2018-03-03T06:55:31.208Z,8.30
2018-03-03T06:58:00.139Z,7.43
2018-03-03T07:00:29.045Z,9.80
2018-03-03T07:02:57.968Z,6.60
2018-03-03T07:05:27.634Z,6.10
2018-03-03T07:07:56.892Z,6.67
2018-03-03T07:10:25.792Z,8.53
2018-03-03T07:12:55.545Z,7.20
2018-03-03T07:15:27.171Z,7.70
2018-03-03T07:17:56.089Z,6.53
2018-03-03T07:20:25.233Z,6.50
2018-03-03T07:22:54.275Z,5.90
2018-03-03T07:25:23.119Z,6.40
2018-03-03T07:27:52.353Z,8.17
2018-03-03T07:30:21.232Z,7.70
2018-03-03T07:32:50.945Z,8.37
2018-03-03T07:35:19.829Z,8.10
2018-03-03T07:37:48.971Z,6.73
2018-03-03T07:40:18.646Z,6.63
2018-03-03T07:42:47.525Z,7.70
2018-03-03T07:45:17.579Z,8.87
2018-03-03T07:47:46.757Z,6.10
2018-03-03T07:50:15.711Z,7.27
2018-03-03T07:52:45.066Z,6.00
2018-03-03T07:55:14.114Z,6.80
2018-03-03T07:57:43.037Z,6.00
2018-03-03T08:00:11.909Z,6.60
2018-03-03T08:02:41.069Z,5.47
2018-03-03T08:05:10.240Z,4.97
2018-03-03T08:07:39.242Z,5.90
2018-03-03T08:10:08.201Z,6.57
2018-03-03T08:12:36.985Z,6.90
2018-03-03T08:15:05.935Z,6.43
2018-03-03T08:17:34.772Z,6.23
2018-03-03T08:20:03.705Z,5.80
2018-03-03T08:22:33.390Z,6.40
2018-03-03T08:25:02.330Z,6.20
2018-03-03T08:27:32.441Z,4.73
2018-03-03T08:30:01.336Z,6.97
2018-03-03T08:32:31.074Z,7.13
2018-03-03T08:35:00.859Z,7.50
2018-03-03T08:37:30.129Z,6.57
2018-03-03T08:39:58.966Z,7.60
2018-03-03T08:42:27.869Z,8.00
2018-03-03T08:44:56.777Z,8.30
2018-03-03T08:47:25.753Z,7.00
2018-03-03T08:49:54.792Z,7.27
2018-03-03T08:52:23.907Z,8.40
2018-03-03T08:54:53.817Z,9.83
2018-03-03T08:57:22.936Z,7.07
2018-03-03T08:59:51.850Z,6.90
2018-03-03T09:02:20.761Z,6.00
2018-03-03T09:04:49.620Z,5.23
2018-03-03T09:07:19.585Z,6.20
2018-03-03T09:09:48.609Z,7.37
2018-03-03T09:12:18.380Z,6.93
2018-03-03T09:14:47.680Z,7.50
2018-03-03T09:17:16.496Z,7.53
2018-03-03T09:19:45.517Z,7.53
2018-03-03T09:22:15.199Z,8.07
2018-03-03T09:24:44.059Z,7.63
2018-03-03T09:27:13.788Z,7.40
2018-03-03T09:29:43.447Z,6.17
2018-03-03T09:32:13.083Z,8.73
2018-03-03T09:34:41.994Z,8.20
2018-03-03T09:37:10.886Z,9.73
2018-03-03T09:39:39.772Z,8.40
2018-03-03T09:42:08.890Z,7.13
2018-03-03T09:44:37.741Z,7.03
2018-03-03T09:47:06.637Z,7.83
2018-03-03T09:49:37.074Z,6.33
2018-03-03T09:52:06.220Z,7.97
2018-03-03T09:54:35.981Z,7.80
2018-03-03T09:57:04.952Z,8.33
2018-03-03T09:59:33.872Z,7.13
2018-03-03T10:02:06.294Z,7.43
2018-03-03T10:04:32.445Z,9.10
2018-03-03T10:07:01.518Z,7.87
2018-03-03T10:09:31.257Z,8.17
2018-03-03T10:12:00.470Z,8.60
2018-03-03T10:14:29.435Z,9.43
2018-03-03T10:16:58.533Z,9.47
2018-03-03T10:19:27.432Z,7.67
2018-03-03T10:21:56.487Z,7.43
2018-03-03T10:24:26.206Z,7.20
2018-03-03T10:26:55.134Z,11.03
2018-03-03T10:29:24.119Z,7.47
2018-03-03T10:31:53.088Z,9.40
2018-03-03T10:34:23.004Z,7.73
2018-03-03T10:36:51.930Z,8.73
2018-03-03T10:39:21.736Z,7.03
2018-03-03T10:41:50.690Z,8.17
2018-03-03T10:44:20.315Z,8.20
2018-03-03T10:46:50.145Z,9.50
2018-03-03T10:49:19.115Z,8.73
2018-03-03T10:51:48.202Z,7.70
2018-03-03T10:54:17.055Z,7.20
2018-03-03T10:56:46.083Z,8.00
2018-03-03T10:59:15.927Z,7.70
2018-03-03T11:01:45.997Z,8.63
2018-03-03T11:04:16.723Z,8.90
2018-03-03T11:06:46.951Z,8.63
2018-03-03T11:09:18.206Z,7.53
2018-03-03T11:11:49.292Z,7.00
2018-03-03T11:14:20.606Z,8.20
2018-03-03T11:16:52.126Z,6.90
2018-03-03T11:19:23.001Z,8.87
2018-03-03T11:21:53.824Z,6.47
2018-03-03T11:24:24.752Z,7.93
2018-03-03T11:26:53.981Z,7.73
2018-03-03T11:29:23.105Z,7.63
2018-03-03T11:31:51.979Z,6.70
2018-03-03T11:34:22.080Z,6.67
2018-03-03T11:36:51.070Z,7.70
2018-03-03T11:39:20.773Z,8.17
2018-03-03T11:41:49.601Z,8.00
2018-03-03T11:44:18.459Z,7.20
2018-03-03T11:46:48.134Z,8.23
2018-03-03T11:49:17.784Z,7.43
2018-03-03T11:51:46.701Z,6.17
2018-03-03T11:54:16.601Z,6.80
2018-03-03T11:56:46.290Z,9.37
2018-03-03T11:59:15.285Z,6.93
2018-03-03T12:01:45.171Z,10.10
2018-03-03T12:04:14.083Z,20.03
2018-03-03T12:06:43.974Z,7.40
2018-03-03T12:09:14.235Z,5.87
2018-03-03T12:11:43.131Z,5.97
2018-03-03T12:14:13.109Z,5.67
2018-03-03T12:16:42.042Z,5.93
2018-03-03T12:19:10.848Z,8.87
2018-03-03T12:21:40.711Z,8.17
2018-03-03T12:24:09.560Z,7.50
2018-03-03T12:26:39.265Z,5.80
2018-03-03T12:29:08.113Z,6.33
2018-03-03T12:31:37.341Z,5.90
2018-03-03T12:34:06.196Z,5.53
2018-03-03T12:36:35.194Z,6.57
2018-03-03T12:39:04.314Z,10.03
2018-03-03T12:41:33.249Z,6.80
2018-03-03T12:44:02.999Z,5.97
2018-03-03T12:46:32.644Z,10.87
2018-03-03T12:49:01.532Z,9.43
2018-03-03T12:51:30.466Z,9.33
2018-03-03T12:54:00.159Z,9.77
2018-03-03T12:56:30.021Z,5.80
2018-03-03T12:58:58.929Z,7.23
2018-03-03T13:01:27.923Z,6.33
2018-03-03T13:03:56.774Z,5.60
2018-03-03T13:06:26.135Z,6.37
2018-03-03T13:08:55.260Z,5.30
2018-03-03T13:11:24.132Z,6.33
2018-03-03T13:13:53.892Z,6.10
2018-03-03T13:16:22.914Z,6.00
2018-03-03T13:18:51.827Z,5.93
2018-03-03T13:21:20.993Z,6.53
2018-03-03T13:23:49.998Z,8.43
2018-03-03T13:26:20.013Z,6.70
2018-03-03T13:28:48.940Z,6.97
2018-03-03T13:31:18.605Z,6.37
2018-03-03T13:33:47.693Z,6.27
2018-03-03T13:36:16.916Z,6.50
2018-03-03T13:38:45.790Z,5.77
2018-03-03T13:41:15.726Z,7.33
2018-03-03T13:43:44.743Z,10.67
2018-03-03T13:46:13.803Z,25.07
2018-03-03T13:48:43.793Z,20.10
2018-03-03T13:51:12.678Z,16.20
2018-03-03T13:53:41.802Z,12.57
2018-03-03T13:56:10.748Z,14.73
2018-03-03T13:58:40.664Z,14.13
2018-03-03T14:01:09.541Z,8.30
2018-03-03T14:03:38.449Z,9.60
2018-03-03T14:06:08.551Z,7.97
2018-03-03T14:08:37.665Z,7.60
2018-03-03T14:11:07.338Z,8.00
2018-03-03T14:13:36.716Z,8.93
2018-03-03T14:16:05.588Z,10.23
2018-03-03T14:18:34.649Z,9.03
2018-03-03T14:21:03.584Z,8.57
2018-03-03T14:23:33.344Z,10.13
2018-03-03T14:26:03.035Z,10.80
2018-03-03T14:28:32.896Z,9.90
2018-03-03T14:31:01.813Z,10.37
2018-03-03T14:33:31.568Z,9.90
2018-03-03T14:36:00.513Z,12.63
2018-03-03T14:38:29.841Z,9.67
2018-03-03T14:40:58.690Z,11.00
2018-03-03T14:43:27.893Z,9.60
2018-03-03T14:45:56.944Z,10.00
2018-03-03T14:48:26.819Z,10.30
2018-03-03T14:50:55.979Z,10.27
2018-03-03T14:53:24.916Z,10.17
2018-03-03T14:55:54.145Z,9.60
2018-03-03T14:58:23.816Z,9.47
2018-03-03T15:00:53.449Z,10.13
2018-03-03T15:03:22.427Z,10.20
2018-03-03T15:05:52.108Z,10.90
2018-03-03T15:08:21.294Z,12.20
2018-03-03T15:10:50.188Z,14.80
2018-03-03T15:13:20.687Z,15.43
2018-03-03T15:15:49.791Z,16.27
2018-03-03T15:18:19.816Z,13.73
2018-03-03T15:20:48.808Z,17.00
2018-03-03T15:23:17.761Z,18.23
2018-03-03T15:25:47.875Z,13.00
2018-03-03T15:28:17.033Z,9.93
2018-03-03T15:30:45.920Z,8.47
2018-03-03T15:33:14.846Z,9.53
2018-03-03T15:35:43.744Z,9.70
2018-03-03T15:38:12.631Z,9.73
2018-03-03T15:40:41.560Z,11.60
2018-03-03T15:43:11.380Z,12.80
2018-03-03T15:45:41.186Z,12.17
2018-03-03T15:48:10.920Z,12.80
2018-03-03T15:50:39.882Z,13.97
2018-03-03T15:53:08.892Z,13.33
2018-03-03T15:55:37.793Z,12.83
2018-03-03T15:58:07.519Z,11.77
2018-03-03T16:00:36.505Z,13.07
2018-03-03T16:03:05.425Z,19.03
2018-03-03T16:05:34.247Z,32.00
2018-03-03T16:08:04.180Z,31.63
2018-03-03T16:10:33.166Z,30.90
2018-03-03T16:13:02.443Z,20.17
2018-03-03T16:15:31.358Z,20.87
2018-03-03T16:18:00.613Z,20.57
2018-03-03T16:20:29.855Z,18.37
2018-03-03T16:22:58.796Z,17.70
2018-03-03T16:25:27.686Z,18.93
2018-03-03T16:27:56.568Z,19.37
2018-03-03T16:30:25.629Z,20.17
2018-03-03T16:32:54.462Z,20.20
2018-03-03T16:35:23.712Z,19.00
2018-03-03T16:37:52.922Z,21.27
2018-03-03T16:40:22.618Z,28.40
2018-03-03T16:42:51.698Z,22.57
2018-03-03T16:45:20.529Z,30.87
2018-03-03T16:47:49.585Z,20.17
2018-03-03T16:50:19.266Z,19.17
2018-03-03T16:52:48.077Z,23.30
2018-03-03T16:55:16.928Z,22.43
2018-03-03T16:57:46.045Z,23.67
2018-03-03T17:00:14.968Z,29.90
2018-03-03T17:02:44.609Z,26.40
2018-03-03T17:05:13.497Z,24.17
2018-03-03T17:07:42.556Z,25.20
2018-03-03T17:10:11.472Z,25.53
2018-03-03T17:12:40.552Z,25.73
2018-03-03T17:15:09.784Z,23.73
2018-03-03T17:17:38.940Z,87.87
2018-03-03T17:20:09.199Z,27.17
2018-03-03T17:22:38.282Z,26.93
2018-03-03T17:25:08.428Z,26.20
2018-03-03T17:27:38.616Z,24.30
2018-03-03T17:30:07.858Z,20.47
2018-03-03T17:32:37.051Z,20.20
2018-03-03T17:35:07.155Z,21.97
2018-03-03T17:37:36.395Z,21.07
2018-03-03T17:40:05.689Z,17.30
2018-03-03T17:42:34.945Z,16.73
2018-03-03T17:45:04.933Z,19.00
2018-03-03T17:47:34.285Z,20.37
2018-03-03T17:50:04.289Z,21.10
2018-03-03T17:52:33.315Z,18.93
2018-03-03T17:55:03.085Z,18.87
2018-03-03T17:57:31.989Z,20.27
2018-03-03T18:00:01.178Z,20.40
2018-03-03T18:02:30.140Z,19.27
2018-03-03T18:04:59.540Z,20.07
2018-03-03T18:07:28.508Z,22.83
2018-03-03T18:09:57.624Z,19.13
2018-03-03T18:12:27.081Z,16.07
2018-03-03T18:14:56.061Z,11.90
2018-03-03T18:17:26.006Z,11.23
2018-03-03T18:19:55.297Z,11.53
2018-03-03T18:22:24.351Z,40.33
2018-03-03T18:24:53.771Z,46.43
2018-03-03T18:27:23.923Z,41.90
2018-03-03T18:29:53.170Z,40.90
2018-03-03T18:32:23.495Z,39.50
2018-03-03T18:34:52.830Z,37.93
2018-03-03T18:37:21.967Z,36.10
2018-03-03T18:39:51.266Z,35.80
2018-03-03T18:42:20.383Z,38.80
2018-03-03T18:44:49.539Z,33.87
2018-03-03T18:47:19.520Z,42.37
2018-03-03T18:49:49.044Z,45.20
2018-03-03T18:52:18.185Z,42.90
2018-03-03T18:54:48.247Z,31.43
2018-03-03T18:57:19.127Z,44.60
2018-03-03T18:59:48.584Z,38.70
2018-03-03T19:02:17.925Z,44.37
2018-03-03T19:04:47.236Z,29.07
2018-03-03T19:07:16.416Z,75.70
2018-03-03T19:09:45.938Z,97.20
2018-03-03T19:12:15.195Z,69.57
2018-03-03T19:14:44.463Z,39.83
2018-03-03T19:17:13.990Z,17.57
2018-03-03T19:19:44.080Z,27.60
2018-03-03T19:22:13.243Z,17.73
2018-03-03T19:24:42.703Z,16.23
2018-03-03T19:27:12.278Z,15.03
2018-03-03T19:29:41.887Z,15.10
2018-03-03T19:32:11.306Z,16.10
2018-03-03T19:34:41.361Z,32.23
2018-03-03T19:37:10.920Z,23.57
2018-03-03T19:39:40.137Z,23.67
2018-03-03T19:42:10.123Z,60.10
2018-03-03T19:44:39.479Z,37.00
2018-03-03T19:47:09.037Z,29.00
2018-03-03T19:49:38.534Z,40.57
2018-03-03T19:52:07.934Z,35.80
2018-03-03T19:54:38.980Z,38.90
2018-03-03T19:57:08.412Z,23.80
2018-03-03T19:59:39.103Z,11.07
2018-03-03T20:02:08.636Z,10.87
2018-03-03T20:04:38.097Z,11.77
2018-03-03T20:07:07.311Z,13.77
2018-03-03T20:09:36.670Z,17.40
2018-03-03T20:12:06.112Z,17.53
2018-03-03T20:14:35.665Z,14.07
2018-03-03T20:17:05.742Z,11.70
2018-03-03T20:19:35.028Z,11.30
2018-03-03T20:22:04.244Z,11.37
2018-03-03T20:24:33.640Z,10.87
2018-03-03T20:27:02.831Z,11.07
2018-03-03T20:29:32.046Z,10.47
2018-03-03T20:32:01.318Z,11.70
2018-03-03T20:34:30.775Z,10.57
2018-03-03T20:37:00.135Z,10.10
2018-03-03T20:39:29.514Z,10.97
2018-03-03T20:41:59.675Z,10.43
2018-03-03T20:44:32.099Z,11.03
2018-03-03T20:47:04.639Z,12.43
2018-03-03T20:49:34.833Z,15.97
2018-03-03T20:52:05.835Z,21.03
2018-03-03T20:54:35.367Z,13.30
2018-03-03T20:57:05.776Z,11.43
2018-03-03T20:59:35.044Z,12.40
2018-03-03T21:02:04.424Z,12.67
2018-03-03T21:04:33.603Z,13.83
2018-03-03T21:07:04.850Z,11.03
2018-03-03T21:09:34.238Z,14.67
2018-03-03T21:12:03.753Z,12.67
2018-03-03T21:14:33.007Z,12.43
2018-03-03T21:17:02.985Z,13.93
2018-03-03T21:19:32.457Z,13.33
2018-03-03T21:22:01.804Z,15.20
2018-03-03T21:24:31.097Z,16.43
2018-03-03T21:27:00.383Z,14.70
2018-03-03T21:29:29.665Z,14.37
2018-03-03T21:31:59.368Z,13.70
2018-03-03T21:34:28.701Z,12.47
2018-03-03T21:36:58.087Z,22.20
2018-03-03T21:39:45.267Z,15.30
2018-03-03T21:42:18.284Z,51.80
2018-03-03T21:44:47.641Z,60.40
2018-03-03T21:47:17.177Z,43.93
2018-03-03T21:49:46.501Z,20.80
2018-03-03T21:52:15.727Z,14.30
2018-03-03T21:54:45.441Z,12.83
2018-03-03T21:57:15.060Z,13.30
2018-03-03T21:59:45.115Z,11.73
2018-03-03T22:02:14.109Z,12.50
2018-03-03T22:04:43.147Z,11.10
2018-03-03T22:07:12.842Z,12.00
2018-03-03T22:09:41.726Z,12.37
2018-03-03T22:12:10.589Z,13.83
2018-03-03T22:14:39.432Z,13.40
2018-03-03T22:17:08.369Z,15.27
2018-03-03T22:19:38.269Z,15.03
2018-03-03T22:22:07.150Z,15.30
2018-03-03T22:24:36.723Z,15.80
2018-03-03T22:27:06.412Z,15.83
2018-03-03T22:29:35.308Z,15.07
2018-03-03T22:32:04.223Z,16.70
2018-03-03T22:34:34.333Z,21.73
2018-03-03T22:37:04.193Z,14.93
2018-03-03T22:39:33.072Z,17.03
2018-03-03T22:42:02.161Z,20.03
2018-03-03T22:44:31.048Z,20.53
2018-03-03T22:47:00.025Z,20.80
2018-03-03T22:49:29.050Z,19.83
2018-03-03T22:51:58.154Z,19.87
2018-03-03T22:54:28.039Z,22.23
2018-03-03T22:56:56.901Z,17.17
2018-03-03T22:59:26.054Z,15.90
2018-03-03T23:01:55.310Z,14.97
2018-03-03T23:04:24.266Z,14.07
2018-03-03T23:06:54.082Z,14.40
2018-03-03T23:09:23.180Z,14.77
2018-03-03T23:11:52.329Z,14.33
2018-03-03T23:14:21.397Z,15.07
2018-03-03T23:16:50.597Z,16.17
2018-03-03T23:19:19.614Z,14.60
2018-03-03T23:21:49.712Z,19.23
2018-03-03T23:24:18.748Z,28.07
2018-03-03T23:26:47.582Z,21.03
2018-03-03T23:29:17.574Z,32.53
2018-03-03T23:31:46.372Z,22.30
2018-03-03T23:34:15.413Z,14.50
2018-03-03T23:36:44.342Z,12.27
2018-03-03T23:39:14.267Z,28.67
2018-03-03T23:41:43.121Z,33.17
2018-03-03T23:44:11.993Z,18.00
2018-03-03T23:46:41.628Z,13.90
2018-03-03T23:49:10.773Z,14.60
2018-03-03T23:51:39.672Z,43.33
2018-03-03T23:54:08.630Z,19.23
2018-03-03T23:56:37.545Z,40.50
2018-03-03T23:59:07.594Z,37.43
